Time;durP1;ratioP1;P1;durP2;ratioP2;P2;SDS_P1;SDS_P2;PMS_P1;PMS_P2;Temp;Humidity;BMP_temperature;BMP_pressure;BME280_temperature;BME280_humidity;BME280_pressure;Samples;Min_cycle;Max_cycle;Signal;HPM_P1;HPM_P2
2024/01/08 00:00:01;;;;;;;5.93;3.95;;;;;;;;;;6252544;22;20042;-78
2024/01/08 00:02:29;;;;;;;6.72;4.15;;;;;;;;;;6253146;22;20113;-78
2024/01/08 00:04:55;;;;;;;9.10;4.30;;;;;;;;;;6252536;22;20064;-78
2024/01/08 00:07:22;;;;;;;7.72;4.30;;;;;;;;;;6252126;22;20354;-78
2024/01/08 00:09:48;;;;;;;7.40;4.00;;;;;;;;;;6253572;22;20021;-78
2024/01/08 00:12:14;;;;;;;6.90;4.05;;;;;;;;;;6280345;22;20022;-78
2024/01/08 00:14:40;;;;;;;5.63;3.97;;;;;;;;;;6255293;22;20018;-78
2024/01/08 00:17:06;;;;;;;5.93;4.13;;;;;;;;;;6254665;22;20508;-77
2024/01/08 00:19:35;;;;;;;7.82;4.32;;;;;;;;;;6255119;22;20098;-78
2024/01/08 00:22:01;;;;;;;4.80;3.67;;;;;;;;;;6254434;22;20015;-78
2024/01/08 00:24:27;;;;;;;7.13;3.75;;;;;;;;;;6254449;22;20098;-77
2024/01/08 00:26:54;;;;;;;8.95;4.43;;;;;;;;;;6280303;22;20015;-77
2024/01/08 00:29:20;;;;;;;7.22;4.07;;;;;;;;;;6255200;22;20015;-77
2024/01/08 00:31:46;;;;;;;6.80;3.90;;;;;;;;;;6254529;22;20459;-77
2024/01/08 00:34:13;;;;;;;7.15;4.10;;;;;;;;;;6255288;22;20023;-77
2024/01/08 00:36:39;;;;;;;7.50;3.92;;;;;;;;;;6254332;22;20061;-78
2024/01/08 00:39:09;;;;;;;6.55;4.03;;;;;;;;;;6256030;22;20011;-77
2024/01/08 00:41:36;;;;;;;6.90;4.03;;;;;;;;;;6254394;22;20015;-78
2024/01/08 00:44:02;;;;;;;8.20;4.43;;;;;;;;;;6255147;22;20138;-78
2024/01/08 00:46:28;;;;;;;7.13;3.90;;;;;;;;;;6253607;22;20026;-78
2024/01/08 00:48:54;;;;;;;6.00;4.20;;;;;;;;;;6255572;22;20047;-78
2024/01/08 00:51:20;;;;;;;7.00;3.67;;;;;;;;;;6254892;22;20021;-78
2024/01/08 00:53:49;;;;;;;7.22;4.15;;;;;;;;;;6254883;22;20015;-78
2024/01/08 00:56:15;;;;;;;7.60;4.22;;;;;;;;;;6253552;22;20018;-78
2024/01/08 00:58:43;;;;;;;7.97;4.53;;;;;;;;;;6254541;22;20055;-77
2024/01/08 01:01:11;;;;;;;6.15;3.90;;;;;;;;;;6254818;22;20060;-77
2024/01/08 01:03:43;;;;;;;5.15;3.45;;;;;;;;;;6254412;22;20012;-77
2024/01/08 01:06:09;;;;;;;5.30;4.10;;;;;;;;;;6254096;22;20015;-77
2024/01/08 01:08:36;;;;;;;8.35;4.57;;;;;;;;;;6253934;22;20043;-77
2024/01/08 01:11:02;;;;;;;6.05;3.65;;;;;;;;;;6254757;22;20019;-77
2024/01/08 01:13:29;;;;;;;6.43;4.03;;;;;;;;;;6254474;22;20019;-77
2024/01/08 01:15:55;;;;;;;5.88;4.00;;;;;;;;;;6254382;22;20011;-77
2024/01/08 01:18:24;;;;;;;8.05;4.78;;;;;;;;;;6254382;22;20456;-77
2024/01/08 01:20:50;;;;;;;7.13;3.90;;;;;;;;;;6253932;22;20045;-77
2024/01/08 01:23:16;;;;;;;6.22;4.40;;;;;;;;;;6253972;22;20340;-77
2024/01/08 01:25:42;;;;;;;6.88;4.10;;;;;;;;;;6254360;22;20313;-77
2024/01/08 01:28:08;;;;;;;5.03;3.90;;;;;;;;;;6253949;22;20023;-77
2024/01/08 01:30:34;;;;;;;6.57;3.75;;;;;;;;;;6254549;22;20047;-77
2024/01/08 01:33:03;;;;;;;6.82;4.25;;;;;;;;;;6254142;22;20015;-77
2024/01/08 01:35:29;;;;;;;8.00;4.63;;;;;;;;;;6254367;22;20019;-78
2024/01/08 01:37:58;;;;;;;6.82;4.28;;;;;;;;;;6254394;22;20048;-78
2024/01/08 01:40:25;;;;;;;4.25;3.70;;;;;;;;;;6279160;22;20019;-78
2024/01/08 01:42:57;;;;;;;6.20;4.20;;;;;;;;;;6254537;22;20015;-77
2024/01/08 01:45:25;;;;;;;6.50;4.10;;;;;;;;;;6254550;22;20026;-77
2024/01/08 01:47:54;;;;;;;7.00;4.13;;;;;;;;;;6253982;22;20051;-77
2024/01/08 01:50:24;;;;;;;4.82;3.58;;;;;;;;;;6254958;22;20403;-77
2024/01/08 01:52:51;;;;;;;7.07;3.83;;;;;;;;;;6254584;22;20495;-77
2024/01/08 01:55:18;;;;;;;5.80;3.95;;;;;;;;;;6253802;22;20394;-77
2024/01/08 01:57:46;;;;;;;5.60;4.00;;;;;;;;;;6254335;22;20011;-77
2024/01/08 02:00:14;;;;;;;5.57;4.10;;;;;;;;;;6253463;22;20019;-77
2024/01/08 02:02:41;;;;;;;6.28;4.20;;;;;;;;;;6253668;22;20020;-78
2024/01/08 02:05:07;;;;;;;7.60;4.20;;;;;;;;;;6253930;22;20047;-77
2024/01/08 02:07:33;;;;;;;7.30;4.22;;;;;;;;;;6254116;22;20046;-77
2024/01/08 02:10:02;;;;;;;6.53;4.18;;;;;;;;;;6254261;22;20020;-77
2024/01/08 02:12:28;;;;;;;6.65;4.88;;;;;;;;;;6252511;22;20132;-77
2024/01/08 02:14:55;;;;;;;6.88;4.43;;;;;;;;;;6253853;22;20016;-78
2024/01/08 02:17:21;;;;;;;6.35;4.25;;;;;;;;;;6255613;22;20119;-78
2024/01/08 02:19:48;;;;;;;6.68;4.05;;;;;;;;;;6253625;22;20012;-78
2024/01/08 02:22:14;;;;;;;5.88;4.13;;;;;;;;;;6256142;22;20067;-77
2024/01/08 02:24:41;;;;;;;8.85;4.95;;;;;;;;;;6253819;22;20041;-77
2024/01/08 02:27:07;;;;;;;6.75;4.45;;;;;;;;;;6253730;22;20340;-77
2024/01/08 02:29:35;;;;;;;7.78;4.32;;;;;;;;;;6253669;22;20015;-77
2024/01/08 02:32:01;;;;;;;6.70;4.70;;;;;;;;;;6253090;22;20053;-77
2024/01/08 02:34:27;;;;;;;7.60;4.53;;;;;;;;;;6253028;22;20016;-77
2024/01/08 02:36:53;;;;;;;8.80;5.28;;;;;;;;;;6253979;22;20012;-77
2024/01/08 02:39:20;;;;;;;7.53;4.38;;;;;;;;;;6252754;22;20098;-77
2024/01/08 02:41:46;;;;;;;9.50;5.18;;;;;;;;;;6253104;22;20015;-78
2024/01/08 02:44:12;;;;;;;7.03;4.93;;;;;;;;;;6253787;22;20493;-77
2024/01/08 02:46:38;;;;;;;7.88;5.00;;;;;;;;;;6279079;22;20022;-77
2024/01/08 02:49:04;;;;;;;8.00;4.97;;;;;;;;;;6279644;22;20023;-77
2024/01/08 02:51:30;;;;;;;8.43;5.07;;;;;;;;;;6253996;22;20068;-78
2024/01/08 02:53:57;;;;;;;10.25;5.75;;;;;;;;;;6253898;22;20038;-77
2024/01/08 02:56:24;;;;;;;8.18;5.55;;;;;;;;;;6252944;22;20019;-78
2024/01/08 02:58:50;;;;;;;8.63;5.13;;;;;;;;;;6253520;22;20160;-77
2024/01/08 03:01:17;;;;;;;8.90;5.32;;;;;;;;;;6253147;22;20406;-78
2024/01/08 03:03:43;;;;;;;8.40;5.03;;;;;;;;;;6253509;22;20093;-77
2024/01/08 03:06:09;;;;;;;7.57;5.20;;;;;;;;;;6253395;22;20030;-78
2024/01/08 03:08:35;;;;;;;8.48;5.18;;;;;;;;;;6252933;22;20503;-77
2024/01/08 03:11:01;;;;;;;7.07;5.05;;;;;;;;;;6253673;22;20015;-78
2024/01/08 03:13:28;;;;;;;6.97;4.72;;;;;;;;;;6252862;22;20037;-78
2024/01/08 03:15:54;;;;;;;6.88;5.07;;;;;;;;;;6254039;22;20525;-77
2024/01/08 03:18:20;;;;;;;8.40;5.40;;;;;;;;;;6253021;22;20015;-78
2024/01/08 03:20:46;;;;;;;8.02;5.20;;;;;;;;;;6253645;22;20027;-78
2024/01/08 03:23:12;;;;;;;7.53;4.93;;;;;;;;;;6252987;22;20097;-78
2024/01/08 03:25:38;;;;;;;5.95;4.70;;;;;;;;;;6252993;22;20112;-77
2024/01/08 03:28:05;;;;;;;7.38;5.20;;;;;;;;;;6253615;22;20523;-78
2024/01/08 03:30:31;;;;;;;7.25;5.68;;;;;;;;;;6253390;22;20073;-78
2024/01/08 03:32:58;;;;;;;7.40;5.38;;;;;;;;;;6252354;22;20019;-78
2024/01/08 03:35:24;;;;;;;8.68;5.32;;;;;;;;;;6252641;22;20015;-78
2024/01/08 03:37:53;;;;;;;7.72;5.05;;;;;;;;;;6254054;22;20317;-78
2024/01/08 03:40:19;;;;;;;7.82;5.03;;;;;;;;;;6253410;22;20022;-78
2024/01/08 03:42:46;;;;;;;10.05;5.38;;;;;;;;;;6253160;22;20114;-77
2024/01/08 03:45:12;;;;;;;7.80;5.13;;;;;;;;;;6253259;22;20023;-77
2024/01/08 03:47:39;;;;;;;9.07;5.32;;;;;;;;;;6254228;22;20015;-77
2024/01/08 03:50:08;;;;;;;7.55;5.28;;;;;;;;;;6256602;22;20015;-77
2024/01/08 03:52:35;;;;;;;8.68;5.35;;;;;;;;;;6255523;22;20012;-77
2024/01/08 03:55:01;;;;;;;8.07;4.88;;;;;;;;;;6255395;22;20023;-77
2024/01/08 03:57:27;;;;;;;8.77;5.10;;;;;;;;;;6254838;22;20011;-77
2024/01/08 03:59:53;;;;;;;9.80;5.35;;;;;;;;;;6255493;22;20265;-78
2024/01/08 04:02:19;;;;;;;9.07;5.32;;;;;;;;;;6254870;22;20023;-78
2024/01/08 04:04:45;;;;;;;7.93;5.10;;;;;;;;;;6255444;22;20015;-78
2024/01/08 04:07:12;;;;;;;9.23;5.40;;;;;;;;;;6254840;22;20391;-78
2024/01/08 04:09:40;;;;;;;7.93;5.20;;;;;;;;;;6255393;22;20096;-78
2024/01/08 04:12:09;;;;;;;8.77;5.63;;;;;;;;;;6256201;22;20090;-77
2024/01/08 04:14:35;;;;;;;9.60;5.82;;;;;;;;;;6255609;22;20065;-77
2024/01/08 04:17:01;;;;;;;11.40;5.93;;;;;;;;;;6255254;22;20012;-77
2024/01/08 04:19:28;;;;;;;8.40;5.30;;;;;;;;;;6255308;22;20038;-78
2024/01/08 04:21:54;;;;;;;10.00;5.70;;;;;;;;;;6253021;22;20022;-78
2024/01/08 04:24:20;;;;;;;8.50;5.60;;;;;;;;;;6255543;22;20386;-77
2024/01/08 04:26:46;;;;;;;7.00;4.68;;;;;;;;;;6254711;22;20308;-78
2024/01/08 04:29:12;;;;;;;8.55;4.85;;;;;;;;;;6255397;22;20102;-78
2024/01/08 04:31:38;;;;;;;4.90;3.10;;;;;;;;;;6252982;22;20061;-77
2024/01/08 04:34:05;;;;;;;5.07;2.67;;;;;;;;;;6254282;22;20047;-78
2024/01/08 04:36:31;;;;;;;4.25;2.80;;;;;;;;;;6280587;22;20097;-78
2024/01/08 04:38:57;;;;;;;3.65;2.75;;;;;;;;;;6255469;22;20015;-78
2024/01/08 04:41:23;;;;;;;6.88;2.75;;;;;;;;;;6254729;22;20144;-78
2024/01/08 04:43:49;;;;;;;3.53;2.80;;;;;;;;;;6254144;22;20110;-78
2024/01/08 04:46:15;;;;;;;4.50;2.80;;;;;;;;;;6254888;22;20019;-78
2024/01/08 04:48:42;;;;;;;5.95;2.67;;;;;;;;;;6254876;22;20019;-78
2024/01/08 04:51:08;;;;;;;3.63;2.38;;;;;;;;;;6254849;22;20340;-78
2024/01/08 04:53:35;;;;;;;6.60;2.85;;;;;;;;;;6255047;22;20011;-77
2024/01/08 04:56:01;;;;;;;5.30;2.78;;;;;;;;;;6254502;22;20019;-78
2024/01/08 04:58:28;;;;;;;4.13;2.67;;;;;;;;;;6254380;22;20099;-77
2024/01/08 05:00:54;;;;;;;5.63;3.45;;;;;;;;;;6254748;22;20015;-77
2024/01/08 05:03:20;;;;;;;5.50;2.95;;;;;;;;;;6253740;22;20270;-77
2024/01/08 05:05:46;;;;;;;4.13;2.67;;;;;;;;;;6254609;22;20015;-77
2024/01/08 05:08:12;;;;;;;3.90;2.80;;;;;;;;;;6254230;22;20023;-78
2024/01/08 05:10:38;;;;;;;5.20;3.00;;;;;;;;;;6254493;22;20051;-78
2024/01/08 05:13:05;;;;;;;6.57;3.40;;;;;;;;;;6254498;22;20011;-78
2024/01/08 05:15:34;;;;;;;4.88;3.45;;;;;;;;;;6254356;22;20141;-78
2024/01/08 05:18:01;;;;;;;5.40;3.33;;;;;;;;;;6254738;22;20332;-78
2024/01/08 05:20:35;;;;;;;6.20;3.38;;;;;;;;;;6254807;22;20061;-77
2024/01/08 05:23:03;;;;;;;16.65;12.15;;;;;;;;;;6254410;22;20012;-78
2024/01/08 05:25:30;;;;;;;9.18;5.00;;;;;;;;;;6254850;22;20023;-77
2024/01/08 05:27:59;;;;;;;4.97;3.30;;;;;;;;;;6254955;22;20102;-78
2024/01/08 05:30:25;;;;;;;4.85;3.28;;;;;;;;;;6254335;22;20094;-78
2024/01/08 05:32:53;;;;;;;5.25;3.55;;;;;;;;;;6254618;22;20020;-77
2024/01/08 05:35:19;;;;;;;6.78;3.80;;;;;;;;;;6280394;22;20336;-77
2024/01/08 05:37:45;;;;;;;6.18;3.55;;;;;;;;;;6254474;22;20022;-78
2024/01/08 05:40:12;;;;;;;5.10;2.95;;;;;;;;;;6254423;22;20042;-78
2024/01/08 05:42:39;;;;;;;6.38;3.45;;;;;;;;;;6253269;22;20011;-78
2024/01/08 05:45:07;;;;;;;5.10;3.13;;;;;;;;;;6254588;22;20347;-78
2024/01/08 05:47:34;;;;;;;5.43;3.55;;;;;;;;;;6254378;22;20042;-79
2024/01/08 05:50:04;;;;;;;6.93;3.65;;;;;;;;;;6253638;22;20047;-78
2024/01/08 05:52:33;;;;;;;5.93;3.40;;;;;;;;;;6254147;22;20432;-78
2024/01/08 05:54:59;;;;;;;11.98;6.65;;;;;;;;;;6253565;22;20016;-78
2024/01/08 05:57:25;;;;;;;8.38;4.03;;;;;;;;;;6252956;22;20019;-78
2024/01/08 05:59:51;;;;;;;7.85;4.50;;;;;;;;;;6254106;22;20015;-78
2024/01/08 06:02:17;;;;;;;5.03;3.53;;;;;;;;;;6254256;22;20035;-78
2024/01/08 06:04:44;;;;;;;7.57;4.00;;;;;;;;;;6254392;22;20452;-78
2024/01/08 06:07:10;;;;;;;6.43;4.75;;;;;;;;;;6253105;22;20022;-78
2024/01/08 06:09:37;;;;;;;7.43;4.07;;;;;;;;;;6253887;22;20102;-78
2024/01/08 06:12:03;;;;;;;8.00;3.40;;;;;;;;;;6254528;22;20030;-78
2024/01/08 06:14:29;;;;;;;6.85;3.70;;;;;;;;;;6254015;22;20019;-78
2024/01/08 06:16:58;;;;;;;5.70;3.88;;;;;;;;;;6254961;22;20542;-78
2024/01/08 06:19:25;;;;;;;5.40;3.28;;;;;;;;;;6254027;22;20019;-78
2024/01/08 06:21:54;;;;;;;7.68;3.40;;;;;;;;;;6253254;22;20027;-78
2024/01/08 06:24:22;;;;;;;6.57;4.00;;;;;;;;;;6253946;22;20019;-78
2024/01/08 06:26:52;;;;;;;4.95;3.53;;;;;;;;;;6253891;22;20113;-78
2024/01/08 06:29:18;;;;;;;5.70;3.47;;;;;;;;;;6254278;22;20019;-78
2024/01/08 06:31:50;;;;;;;5.35;3.25;;;;;;;;;;6254176;22;20038;-77
2024/01/08 06:34:19;;;;;;;6.90;3.78;;;;;;;;;;6253832;22;20443;-77
2024/01/08 06:36:45;;;;;;;6.50;3.22;;;;;;;;;;6253298;22;20482;-78
2024/01/08 06:39:11;;;;;;;6.25;3.92;;;;;;;;;;6254380;22;20053;-78
2024/01/08 06:41:38;;;;;;;7.50;3.92;;;;;;;;;;6253793;22;20057;-78
2024/01/08 06:44:04;;;;;;;12.80;4.50;;;;;;;;;;6253540;22;20069;-77
2024/01/08 06:46:30;;;;;;;7.00;3.85;;;;;;;;;;6254196;22;20026;-78
2024/01/08 06:48:57;;;;;;;5.60;3.50;;;;;;;;;;6254296;22;20015;-78
2024/01/08 06:51:26;;;;;;;5.95;3.72;;;;;;;;;;6252392;22;20019;-78
2024/01/08 06:53:52;;;;;;;6.40;3.83;;;;;;;;;;6252937;22;20096;-77
2024/01/08 06:56:21;;;;;;;7.15;3.80;;;;;;;;;;6251957;22;20015;-77
2024/01/08 06:58:47;;;;;;;7.82;4.45;;;;;;;;;;6252384;22;20012;-77
2024/01/08 07:01:16;;;;;;;6.38;3.85;;;;;;;;;;6252813;22;20015;-77
2024/01/08 07:03:42;;;;;;;7.05;3.83;;;;;;;;;;6253936;22;20029;-78
2024/01/08 07:06:08;;;;;;;7.07;3.42;;;;;;;;;;6252081;22;20518;-77
2024/01/08 07:08:34;;;;;;;8.63;3.60;;;;;;;;;;6252736;22;20071;-77
2024/01/08 07:11:00;;;;;;;6.72;3.47;;;;;;;;;;6253900;22;20015;-77
2024/01/08 07:13:29;;;;;;;8.10;3.60;;;;;;;;;;6253586;22;20124;-78
2024/01/08 07:15:55;;;;;;;6.00;3.00;;;;;;;;;;6253383;22;20011;-77
2024/01/08 07:18:21;;;;;;;7.47;3.58;;;;;;;;;;6253186;22;20016;-77
2024/01/08 07:20:48;;;;;;;6.53;3.63;;;;;;;;;;6253215;22;20511;-77
2024/01/08 07:23:14;;;;;;;4.30;2.97;;;;;;;;;;6253151;22;20070;-77
2024/01/08 07:25:41;;;;;;;6.15;3.55;;;;;;;;;;6253336;22;20015;-77
2024/01/08 07:28:09;;;;;;;5.82;3.30;;;;;;;;;;6252807;22;20015;-77
2024/01/08 07:30:38;;;;;;;9.02;3.92;;;;;;;;;;6253220;22;20019;-77
2024/01/08 07:33:04;;;;;;;5.85;2.50;;;;;;;;;;6253450;22;20033;-77
2024/01/08 07:35:31;;;;;;;5.55;3.17;;;;;;;;;;6253365;22;20012;-77
2024/01/08 07:37:57;;;;;;;7.18;2.92;;;;;;;;;;6252328;22;20409;-77
2024/01/08 07:40:24;;;;;;;5.15;3.08;;;;;;;;;;6252238;22;20058;-77
2024/01/08 07:42:58;;;;;;;7.22;3.10;;;;;;;;;;6252707;22;20047;-78
2024/01/08 07:45:24;;;;;;;5.65;3.55;;;;;;;;;;6253198;22;20091;-77
2024/01/08 07:47:51;;;;;;;8.60;3.35;;;;;;;;;;6253533;22;20400;-77
2024/01/08 07:50:17;;;;;;;5.03;3.00;;;;;;;;;;6279540;22;20090;-77
2024/01/08 07:52:43;;;;;;;7.45;3.22;;;;;;;;;;6253477;22;20436;-77
2024/01/08 07:55:10;;;;;;;8.45;3.50;;;;;;;;;;6253426;22;20494;-77
2024/01/08 07:57:38;;;;;;;7.10;3.40;;;;;;;;;;6253318;22;20425;-77
2024/01/08 08:00:11;;;;;;;7.05;3.45;;;;;;;;;;6253795;22;20019;-77
2024/01/08 08:02:38;;;;;;;7.78;3.47;;;;;;;;;;6255073;22;20022;-76
2024/01/08 08:05:04;;;;;;;7.97;3.25;;;;;;;;;;6279155;22;20026;-77
2024/01/08 08:07:30;;;;;;;6.68;2.92;;;;;;;;;;6278714;22;20026;-77
2024/01/08 08:09:56;;;;;;;4.63;2.90;;;;;;;;;;6253413;22;20072;-77
2024/01/08 08:12:23;;;;;;;6.05;3.20;;;;;;;;;;6278185;22;20459;-77
2024/01/08 08:14:49;;;;;;;4.95;3.10;;;;;;;;;;6278609;22;20047;-78
2024/01/08 08:20:12;;;;;;;7.43;3.10;;;;;;;;;;6269809;22;20034;-78
2024/01/08 08:22:39;;;;;;;5.70;3.30;;;;;;;;;;6253395;22;20478;-77
2024/01/08 08:25:05;;;;;;;6.68;3.25;;;;;;;;;;6306525;22;20050;-77
2024/01/08 08:27:32;;;;;;;7.25;3.00;;;;;;;;;;6253699;22;20439;-77
2024/01/08 08:30:19;;;;;;;6.50;2.92;;;;;;;;;;6278927;22;20038;-77
2024/01/08 08:32:45;;;;;;;;;;;;;;;;;;6255709;22;20019;-77
2024/01/08 08:35:11;;;;;;;7.67;4.57;;;;;;;;;;6255381;22;19922;-78
2024/01/08 08:37:37;;;;;;;9.75;3.33;;;;;;;;;;6308184;22;20429;-76
2024/01/08 08:40:04;;;;;;;6.63;4.05;;;;;;;;;;6255345;22;20019;-77
2024/01/08 08:42:32;;;;;;;8.07;3.38;;;;;;;;;;6254885;22;20011;-78
2024/01/08 08:44:59;;;;;;;8.05;2.90;;;;;;;;;;6255186;22;20340;-77
2024/01/08 08:47:25;;;;;;;5.60;2.88;;;;;;;;;;6280771;22;20015;-77
2024/01/08 08:49:51;;;;;;;6.53;3.17;;;;;;;;;;6281013;22;20019;-77
2024/01/08 08:52:17;;;;;;;5.15;2.90;;;;;;;;;;6254760;22;20459;-78
2024/01/08 08:54:43;;;;;;;5.20;2.80;;;;;;;;;;6308135;22;20051;-77
2024/01/08 08:57:10;;;;;;;5.10;3.15;;;;;;;;;;6254638;22;20396;-77
2024/01/08 08:59:37;;;;;;;8.23;2.70;;;;;;;;;;6255987;22;20051;-77
2024/01/08 09:02:05;;;;;;;7.05;2.60;;;;;;;;;;6255114;22;20068;-77
2024/01/08 09:04:32;;;;;;;5.30;2.50;;;;;;;;;;6254929;22;20022;-77
2024/01/08 09:06:58;;;;;;;11.48;2.80;;;;;;;;;;6254597;22;20049;-77
2024/01/08 09:09:24;;;;;;;5.68;2.45;;;;;;;;;;6307736;22;20068;-78
2024/01/08 09:11:50;;;;;;;5.53;2.85;;;;;;;;;;6280552;22;20019;-78
2024/01/08 09:14:16;;;;;;;6.00;2.78;;;;;;;;;;6254173;22;20093;-77
2024/01/08 09:16:43;;;;;;;6.40;2.63;;;;;;;;;;6254529;22;20030;-78
2024/01/08 09:19:09;;;;;;;4.60;2.70;;;;;;;;;;6307811;22;20022;-78
2024/01/08 09:21:35;;;;;;;4.35;2.75;;;;;;;;;;6254829;22;20022;-78
2024/01/08 09:24:01;;;;;;;6.00;2.88;;;;;;;;;;6254728;22;20030;-78
2024/01/08 09:26:27;;;;;;;11.70;4.40;;;;;;;;;;6254187;22;20343;-78
2024/01/08 09:28:56;;;;;;;7.32;3.15;;;;;;;;;;6255144;22;20029;-78
2024/01/08 09:31:22;;;;;;;8.45;4.25;;;;;;;;;;6307169;22;20360;-78
2024/01/08 09:33:49;;;;;;;5.55;2.92;;;;;;;;;;6254515;22;20015;-78
2024/01/08 09:36:15;;;;;;;6.32;3.15;;;;;;;;;;6254449;22;20067;-78
2024/01/08 09:38:41;;;;;;;4.53;2.40;;;;;;;;;;6254815;22;20129;-78
2024/01/08 09:41:11;;;;;;;4.32;2.50;;;;;;;;;;6254374;22;20026;-78
2024/01/08 09:43:39;;;;;;;5.80;2.53;;;;;;;;;;6279509;22;20065;-78
2024/01/08 09:46:06;;;;;;;4.10;2.92;;;;;;;;;;6255130;22;20440;-78
2024/01/08 09:48:34;;;;;;;8.15;4.13;;;;;;;;;;6281216;22;20440;-78
2024/01/08 09:51:03;;;;;;;7.75;3.58;;;;;;;;;;6256798;22;20023;-79
2024/01/08 09:53:30;;;;;;;4.75;2.53;;;;;;;;;;6256919;22;20193;-79
2024/01/08 09:55:56;;;;;;;7.15;3.08;;;;;;;;;;6255328;22;20011;-80
2024/01/08 09:58:22;;;;;;;6.63;3.05;;;;;;;;;;6256384;22;20019;-80
2024/01/08 10:00:49;;;;;;;5.00;3.05;;;;;;;;;;6256707;22;20011;-80
2024/01/08 10:03:15;;;;;;;7.10;3.55;;;;;;;;;;6256622;22;20488;-80
2024/01/08 10:05:41;;;;;;;6.80;3.00;;;;;;;;;;6254110;22;20035;-79
2024/01/08 10:08:07;;;;;;;10.93;3.55;;;;;;;;;;6256354;22;20015;-80
2024/01/08 10:10:33;;;;;;;8.82;4.20;;;;;;;;;;6256612;22;20015;-80
2024/01/08 10:13:14;;;;;;;7.65;4.53;;;;;;;;;;6256576;22;20342;-80
2024/01/08 10:15:46;;;;;;;4.28;2.90;;;;;;;;;;6257751;22;20100;-81
2024/01/08 10:18:15;;;;;;;5.57;2.92;;;;;;;;;;6258127;22;20015;-81
2024/01/08 10:20:44;;;;;;;4.63;2.65;;;;;;;;;;6259387;22;20019;-80
2024/01/08 10:23:25;;;;;;;4.65;2.75;;;;;;;;;;6261271;22;20015;-80
2024/01/08 10:25:54;;;;;;;4.15;2.90;;;;;;;;;;6257463;22;20019;-79
2024/01/08 10:28:23;;;;;;;7.53;3.60;;;;;;;;;;6257588;22;20398;-79
2024/01/08 10:30:56;;;;;;;17.23;6.90;;;;;;;;;;6257354;22;20347;-80
2024/01/08 10:33:37;;;;;;;7.57;3.72;;;;;;;;;;6258458;22;20045;-80
2024/01/08 10:36:10;;;;;;;7.78;4.00;;;;;;;;;;6261011;22;20015;-79
2024/01/08 10:39:02;;;;;;;;;;;;;;;;;;;;;
2024/01/08 10:42:08;;;;;;;6.75;3.58;;;;;;;;;;6300187;22;20011;-80
2024/01/08 10:44:39;;;;;;;7.15;3.58;;;;;;;;;;6135211;22;20015;-80
2024/01/08 10:47:44;;;;;;;10.52;4.50;;;;;;;;;;6257602;22;20015;-80
2024/01/08 10:53:53;;;;;;;4.28;2.60;;;;;;;;;;6310106;22;20023;-80
2024/01/08 10:56:34;;;;;;;7.57;3.17;;;;;;;;;;6256992;22;20035;-80
2024/01/08 10:59:23;;;;;;;;;;;;;;;;;;;;;
2024/01/08 11:02:03;;;;;;;4.38;2.63;;;;;;;;;;6281957;22;20019;-79
2024/01/08 11:04:32;;;;;;;3.72;2.63;;;;;;;;;;6257515;22;20026;-81
2024/01/08 11:06:59;;;;;;;6.22;3.40;;;;;;;;;;6257553;22;20030;-79
2024/01/08 11:09:41;;;;;;;6.13;2.75;;;;;;;;;;6257363;22;20019;-79
2024/01/08 11:12:11;;;;;;;8.10;3.15;;;;;;;;;;6219308;23;20095;-80
2024/01/08 11:14:42;;;;;;;8.52;3.15;;;;;;;;;;6195245;23;20016;-79
2024/01/08 11:17:09;;;;;;;4.97;2.78;;;;;;;;;;6193710;23;20480;-79
2024/01/08 11:19:49;;;;;;;6.65;3.15;;;;;;;;;;6193244;23;20078;-78
2024/01/08 11:22:18;;;;;;;4.25;2.85;;;;;;;;;;6194694;23;20016;-79
2024/01/08 11:24:44;;;;;;;4.65;3.20;;;;;;;;;;6193688;23;20024;-79
2024/01/08 11:27:15;;;;;;;10.85;5.05;;;;;;;;;;6193429;23;20016;-79
2024/01/08 11:30:01;;;;;;;5.13;3.20;;;;;;;;;;6193411;23;20020;-79
2024/01/08 11:32:33;;;;;;;6.13;2.95;;;;;;;;;;6195234;23;20358;-79
2024/01/08 11:35:02;;;;;;;5.32;3.05;;;;;;;;;;6194497;23;20026;-79
2024/01/08 11:40:40;;;;;;;7.75;3.28;;;;;;;;;;6219913;23;20027;-79
2024/01/08 11:43:08;;;;;;;10.50;4.63;;;;;;;;;;6223902;22;20015;-79
2024/01/08 11:45:52;;;;;;;;;;;;;;;;;;;;;
2024/01/08 11:48:43;;;;;;;5.97;3.03;;;;;;;;;;6302541;22;20078;-79
2024/01/08 11:51:09;;;;;;;4.35;3.08;;;;;;;;;;6254475;22;20019;-78
2024/01/08 11:53:35;;;;;;;5.45;2.90;;;;;;;;;;6254334;22;20016;-78
2024/01/08 11:56:04;;;;;;;6.47;3.63;;;;;;;;;;6254254;22;20016;-78
2024/01/08 11:58:30;;;;;;;7.00;4.03;;;;;;;;;;6253481;22;20504;-77
2024/01/08 12:00:58;;;;;;;6.57;3.40;;;;;;;;;;6253448;22;20017;-78
2024/01/08 12:03:25;;;;;;;5.45;3.20;;;;;;;;;;6278895;22;20094;-77
2024/01/08 12:06:07;;;;;;;6.60;3.40;;;;;;;;;;6308084;22;20019;-78
2024/01/08 12:08:34;;;;;;;4.68;3.10;;;;;;;;;;6280904;22;20019;-78
2024/01/08 12:11:04;;;;;;;5.28;3.40;;;;;;;;;;6280801;22;20390;-78
2024/01/08 12:13:31;;;;;;;5.55;3.38;;;;;;;;;;6255245;22;20094;-78
2024/01/08 12:15:57;;;;;;;5.43;3.20;;;;;;;;;;6255474;22;20018;-78
2024/01/08 12:18:24;;;;;;;5.47;2.85;;;;;;;;;;6255478;22;20038;-79
2024/01/08 12:20:50;;;;;;;3.67;2.90;;;;;;;;;;6256849;22;20027;-79
2024/01/08 12:23:16;;;;;;;5.25;3.10;;;;;;;;;;6256550;22;20019;-79
2024/01/08 12:25:43;;;;;;;5.15;3.10;;;;;;;;;;6256463;22;20066;-79
2024/01/08 12:28:09;;;;;;;5.22;3.25;;;;;;;;;;6309372;22;20023;-79
2024/01/08 12:30:35;;;;;;;5.85;3.08;;;;;;;;;;6256736;22;20073;-79
2024/01/08 12:33:01;;;;;;;7.30;3.25;;;;;;;;;;6255259;22;20023;-79
2024/01/08 12:35:27;;;;;;;4.85;3.00;;;;;;;;;;6281253;22;20022;-79
2024/01/08 12:37:54;;;;;;;5.78;3.00;;;;;;;;;;6254935;22;20015;-79
2024/01/08 12:40:23;;;;;;;7.28;2.80;;;;;;;;;;6255662;22;20077;-79
2024/01/08 12:42:50;;;;;;;6.93;3.40;;;;;;;;;;6281052;22;20023;-79
2024/01/08 12:45:16;;;;;;;6.72;2.85;;;;;;;;;;6255613;22;20015;-79
2024/01/08 12:47:42;;;;;;;4.65;2.80;;;;;;;;;;6307854;22;20455;-79
2024/01/08 12:50:08;;;;;;;7.28;2.83;;;;;;;;;;6255753;22;20038;-78
2024/01/08 12:52:34;;;;;;;4.68;2.72;;;;;;;;;;6255524;22;20344;-79
2024/01/08 12:55:00;;;;;;;3.70;2.50;;;;;;;;;;6255972;22;20015;-78
2024/01/08 12:57:30;;;;;;;6.05;2.78;;;;;;;;;;6256082;22;20504;-78
2024/01/08 12:59:56;;;;;;;5.32;2.78;;;;;;;;;;6255112;22;20070;-79
2024/01/08 13:02:27;;;;;;;5.47;2.80;;;;;;;;;;6255006;22;20018;-79
2024/01/08 13:04:54;;;;;;;4.95;2.80;;;;;;;;;;6255364;22;20019;-78
2024/01/08 13:07:20;;;;;;;4.03;2.75;;;;;;;;;;6255411;22;20011;-78
2024/01/08 13:09:49;;;;;;;4.68;2.70;;;;;;;;;;6255669;22;20019;-78
2024/01/08 13:12:15;;;;;;;4.32;2.90;;;;;;;;;;6254553;22;20026;-79
2024/01/08 13:14:44;;;;;;;5.30;3.42;;;;;;;;;;6255649;22;20098;-79
2024/01/08 13:17:10;;;;;;;8.05;3.67;;;;;;;;;;6254613;22;20019;-79
2024/01/08 13:19:36;;;;;;;11.55;3.10;;;;;;;;;;6255638;22;20090;-79
2024/01/08 13:22:02;;;;;;;4.35;2.83;;;;;;;;;;6255794;22;20451;-79
2024/01/08 13:24:28;;;;;;;5.80;3.33;;;;;;;;;;6255103;22;20015;-78
2024/01/08 13:26:54;;;;;;;6.30;3.58;;;;;;;;;;6255735;22;20015;-78
2024/01/08 13:29:21;;;;;;;4.30;2.80;;;;;;;;;;6254480;22;20080;-79
2024/01/08 13:31:48;;;;;;;4.97;3.08;;;;;;;;;;6254876;22;20351;-78
2024/01/08 13:34:14;;;;;;;5.47;2.92;;;;;;;;;;6255238;22;20027;-78
2024/01/08 13:36:43;;;;;;;4.88;2.90;;;;;;;;;;6254648;22;20348;-78
2024/01/08 13:39:09;;;;;;;4.90;2.88;;;;;;;;;;6254789;22;20013;-78
2024/01/08 13:41:37;;;;;;;6.40;3.08;;;;;;;;;;6254715;22;20019;-78
2024/01/08 13:44:03;;;;;;;6.25;3.13;;;;;;;;;;6255035;22;20030;-78
2024/01/08 13:46:33;;;;;;;6.07;3.20;;;;;;;;;;6254674;22;20068;-78
2024/01/08 13:48:59;;;;;;;5.75;3.28;;;;;;;;;;6254732;22;20011;-78
2024/01/08 13:51:25;;;;;;;4.78;3.10;;;;;;;;;;6253882;22;20053;-77
2024/01/08 13:53:53;;;;;;;6.13;3.30;;;;;;;;;;6254179;22;20076;-77
2024/01/08 13:56:19;;;;;;;5.75;3.42;;;;;;;;;;6254100;22;20038;-76
2024/01/08 13:58:45;;;;;;;6.25;3.15;;;;;;;;;;6254356;22;20065;-76
2024/01/08 14:01:12;;;;;;;5.97;2.95;;;;;;;;;;6254042;22;20145;-76
2024/01/08 14:03:38;;;;;;;5.50;3.35;;;;;;;;;;6254138;22;20019;-77
2024/01/08 14:06:05;;;;;;;5.18;3.30;;;;;;;;;;6253864;22;20019;-77
2024/01/08 14:08:31;;;;;;;5.60;3.30;;;;;;;;;;6254034;22;20509;-77
2024/01/08 14:10:59;;;;;;;6.18;2.97;;;;;;;;;;6254268;22;20019;-77
2024/01/08 14:13:26;;;;;;;4.55;2.75;;;;;;;;;;6279687;22;20131;-77
2024/01/08 14:15:52;;;;;;;3.47;2.55;;;;;;;;;;6254379;22;20083;-77
2024/01/08 14:18:18;;;;;;;5.78;3.33;;;;;;;;;;6253837;22;20093;-77
2024/01/08 14:20:45;;;;;;;3.95;2.60;;;;;;;;;;6253890;22;20023;-77
2024/01/08 14:23:11;;;;;;;5.47;2.83;;;;;;;;;;6254425;22;20400;-77
2024/01/08 14:25:37;;;;;;;7.00;3.35;;;;;;;;;;6254636;22;20034;-77
2024/01/08 14:28:03;;;;;;;6.55;3.03;;;;;;;;;;6253968;22;20073;-77
2024/01/08 14:30:32;;;;;;;5.82;3.00;;;;;;;;;;6254331;22;20023;-77
2024/01/08 14:32:59;;;;;;;4.30;2.90;;;;;;;;;;6253983;22;20038;-77
2024/01/08 14:35:25;;;;;;;6.20;3.15;;;;;;;;;;6254003;22;20019;-77
2024/01/08 14:37:51;;;;;;;5.75;3.60;;;;;;;;;;6279215;22;20011;-77
2024/01/08 14:40:27;;;;;;;7.10;3.78;;;;;;;;;;6254021;22;20015;-77
2024/01/08 14:42:53;;;;;;;7.38;3.50;;;;;;;;;;6254202;22;20451;-77
2024/01/08 14:45:19;;;;;;;5.80;3.17;;;;;;;;;;6254285;22;20400;-78
2024/01/08 14:47:46;;;;;;;4.95;3.58;;;;;;;;;;6253387;22;20019;-77
2024/01/08 14:50:12;;;;;;;6.40;4.47;;;;;;;;;;6253257;22;20015;-77
2024/01/08 14:52:38;;;;;;;4.43;3.00;;;;;;;;;;6253925;22;20019;-77
2024/01/08 14:55:05;;;;;;;6.18;3.15;;;;;;;;;;6253610;22;20025;-77
2024/01/08 14:57:31;;;;;;;6.07;3.10;;;;;;;;;;6253544;22;20015;-77